Time;durP1;ratioP1;P1;durP2;ratioP2;P2;SDS_P1;SDS_P2;PMS_P1;PMS_P2;Temp;Humidity;BMP_temperature;BMP_pressure;BME280_temperature;BME280_humidity;BME280_pressure;Samples;Min_cycle;Max_cycle;Signal;HPM_P1;HPM_P2
2021/12/26 00:00:53;;;;;;;28.95;14.38;;;2.60;99.90;;;;;;5006335;28;20417;-83
2021/12/26 00:03:20;;;;;;;30.05;16.65;;;2.80;99.90;;;;;;5026566;28;20277;-85
2021/12/26 00:05:46;;;;;;;27.90;15.50;;;2.80;99.90;;;;;;5017059;28;21092;-82
2021/12/26 00:08:12;;;;;;;30.00;14.40;;;;;;;;;;5006871;28;20253;-82
2021/12/26 00:10:38;;;;;;;24.33;14.53;;;;;;;;;;5017506;28;20436;-85
2021/12/26 00:13:04;;;;;;;28.50;16.50;;;;;;;;;;5025651;28;20471;-81
2021/12/26 00:15:30;;;;;;;36.08;16.17;;;2.70;99.90;;;;;;5014903;28;20472;-84
2021/12/26 00:17:56;;;;;;;30.20;16.87;;;;;;;;;;5018360;28;20232;-82
2021/12/26 00:20:22;;;;;;;35.30;16.83;;;;;;;;;;5017494;28;20479;-86
2021/12/26 00:22:48;;;;;;;32.60;17.40;;;2.70;99.90;;;;;;5009336;28;20472;-86
2021/12/26 00:25:15;;;;;;;31.45;16.13;;;2.80;99.90;;;;;;5018409;28;20186;-84
2021/12/26 00:27:41;;;;;;;28.88;16.13;;;2.80;99.90;;;;;;5005930;28;20201;-83
2021/12/26 00:30:11;;;;;;;30.10;17.03;;;2.80;99.90;;;;;;5016057;28;20666;-81
2021/12/26 00:32:38;;;;;;;29.25;16.92;;;2.90;99.90;;;;;;5017907;28;20209;-86
2021/12/26 00:35:05;;;;;;;32.22;17.55;;;5.60;99.90;;;;;;5020321;28;20179;-85
2021/12/26 00:37:30;;;;;;;39.25;20.60;;;2.80;99.90;;;;;;5018895;28;20198;-86
2021/12/26 00:39:57;;;;;;;30.93;17.63;;;;;;;;;;5003568;28;20489;-83
2021/12/26 00:42:22;;;;;;;25.95;14.98;;;2.80;99.90;;;;;;5023825;28;20612;-85
2021/12/26 00:44:48;;;;;;;31.07;15.67;;;;;;;;;;4999224;28;20182;-85
2021/12/26 00:47:14;;;;;;;30.03;14.80;;;2.90;99.90;;;;;;5019648;28;20209;-84
2021/12/26 00:49:40;;;;;;;29.77;15.23;;;2.90;99.90;;;;;;5019069;28;20533;-83
2021/12/26 00:52:07;;;;;;;22.15;14.23;;;4.10;99.90;;;;;;5019694;28;20217;-87
2021/12/26 00:54:34;;;;;;;28.27;14.02;;;2.70;99.90;;;;;;5020985;28;20185;-85
2021/12/26 00:57:00;;;;;;;27.38;13.73;;;2.80;99.90;;;;;;5021865;28;20214;-82
2021/12/26 00:59:26;;;;;;;30.65;16.77;;;2.90;99.90;;;;;;5025589;28;20209;-85
2021/12/26 01:01:53;;;;;;;24.90;15.40;;;2.80;99.90;;;;;;5021021;28;20185;-85
2021/12/26 01:04:19;;;;;;;33.75;14.43;;;2.80;99.90;;;;;;4997543;28;20437;-85
2021/12/26 01:06:45;;;;;;;28.50;15.30;;;;;;;;;;5021382;28;20267;-85
2021/12/26 01:09:16;;;;;;;32.10;16.60;;;;;;;;;;5017667;28;20436;-84
2021/12/26 01:11:50;;;;;;;28.38;14.32;;;2.70;99.90;;;;;;4999669;28;20542;-84
2021/12/26 01:14:24;;;;;;;22.65;13.80;;;2.70;99.90;;;;;;5018104;28;20215;-84
2021/12/26 01:16:50;;;;;;;29.48;15.60;;;2.70;99.90;;;;;;5000690;28;20193;-87
2021/12/26 01:19:18;;;;;;;27.35;16.15;;;2.60;99.90;;;;;;4997789;28;20202;-86
2021/12/26 01:21:45;;;;;;;30.63;15.70;;;2.50;99.90;;;;;;5018360;28;20178;-80
2021/12/26 01:24:14;;;;;;;27.52;15.25;;;2.50;99.90;;;;;;5026563;28;20446;-82
2021/12/26 01:26:40;;;;;;;33.15;16.50;;;2.50;99.90;;;;;;5023869;28;20424;-85
2021/12/26 01:29:07;;;;;;;27.53;15.07;;;2.50;99.90;;;;;;5023611;28;20723;-84
2021/12/26 01:31:33;;;;;;;25.60;16.10;;;2.50;99.90;;;;;;5023391;28;20584;-81
2021/12/26 01:34:02;;;;;;;32.38;15.88;;;2.50;99.90;;;;;;4997611;28;20186;-80
2021/12/26 01:36:29;;;;;;;31.50;15.95;;;3.30;99.90;;;;;;5038467;28;20272;-80
2021/12/26 01:38:58;;;;;;;25.95;15.50;;;2.50;99.90;;;;;;5032269;28;20182;-79
2021/12/26 01:41:24;;;;;;;33.03;15.35;;;2.60;99.90;;;;;;5014786;28;20175;-83
2021/12/26 01:43:56;;;;;;;29.13;16.00;;;2.60;99.90;;;;;;5027462;28;20260;-82
2021/12/26 01:46:23;;;;;;;28.35;14.90;;;4.30;99.90;;;;;;5026405;28;20304;-80
2021/12/26 01:48:48;;;;;;;31.55;16.95;;;2.50;99.90;;;;;;5023043;28;20188;-85
2021/12/26 01:51:14;;;;;;;25.87;15.83;;;;;;;;;;5023816;28;20178;-80
2021/12/26 01:53:41;;;;;;;26.40;15.23;;;;;;;;;;5020534;28;20317;-81
2021/12/26 01:56:10;;;;;;;28.25;15.88;;;2.50;99.90;;;;;;5003279;28;20507;-85
2021/12/26 01:58:37;;;;;;;29.77;16.10;;;2.40;99.90;;;;;;5005505;28;20193;-83
2021/12/26 02:01:08;;;;;;;36.97;16.73;;;2.70;99.90;;;;;;5022709;28;20216;-81
2021/12/26 02:04:04;;;;;;;30.35;15.18;;;2.70;99.90;;;;;;5024521;28;20185;-83
2021/12/26 02:06:30;;;;;;;31.77;17.95;;;;;;;;;;5011650;28;20663;-83
2021/12/26 02:08:56;;;;;;;29.05;16.17;;;2.70;99.90;;;;;;5022565;28;20189;-82
2021/12/26 02:11:22;;;;;;;32.87;15.70;;;;;;;;;;5015073;28;20193;-81
2021/12/26 02:13:48;;;;;;;28.63;16.93;;;;;;;;;;5016745;28;20213;-86
2021/12/26 02:16:14;;;;;;;31.20;16.27;;;2.70;99.90;;;;;;5023533;28;20459;-85
2021/12/26 02:18:40;;;;;;;28.33;15.80;;;2.80;99.90;;;;;;5012458;28;20444;-83
2021/12/26 02:21:21;;;;;;;28.02;14.85;;;2.80;99.90;;;;;;5023112;28;20181;-83
2021/12/26 02:24:00;;;;;;;29.33;14.57;;;2.70;99.90;;;;;;5022076;28;20174;-83
2021/12/26 02:29:10;;;;;;;28.58;16.40;;;3.00;99.90;;;;;;5022396;28;20220;-80
2021/12/26 02:31:36;;;;;;;28.50;16.93;;;;;;;;;;5022986;28;20193;-84
2021/12/26 02:34:02;;;;;;;25.38;14.98;;;3.00;99.90;;;;;;5015105;28;20202;-85
2021/12/26 02:36:28;;;;;;;30.07;16.50;;;;;;;;;;5023748;28;20225;-84
2021/12/26 02:38:54;;;;;;;29.98;15.73;;;2.90;99.90;;;;;;5005224;28;20202;-87
2021/12/26 02:41:20;;;;;;;29.10;15.17;;;2.90;99.90;;;;;;5003864;28;20189;-82
2021/12/26 02:43:45;;;;;;;32.08;16.20;;;2.60;99.90;;;;;;5010775;28;20182;-84
2021/12/26 02:46:11;;;;;;;31.97;15.93;;;;;;;;;;5023890;28;20265;-83
2021/12/26 02:48:38;;;;;;;29.37;15.20;;;2.90;99.90;;;;;;5016585;28;20189;-84
2021/12/26 02:51:05;;;;;;;26.55;16.85;;;2.90;99.90;;;;;;5000050;28;20523;-82
2021/12/26 02:53:30;;;;;;;31.08;16.70;;;2.80;99.90;;;;;;5022685;28;20229;-83
2021/12/26 02:55:58;;;;;;;31.00;17.43;;;2.70;99.90;;;;;;5003824;28;20197;-85
2021/12/26 02:58:24;;;;;;;27.50;16.60;;;2.70;99.90;;;;;;5001989;28;20243;-80
2021/12/26 03:00:54;;;;;;;31.90;17.20;;;2.90;99.90;;;;;;4999833;28;20177;-83
2021/12/26 03:03:19;;;;;;;34.13;16.10;;;2.90;99.90;;;;;;5021300;28;20495;-83
2021/12/26 03:05:53;;;;;;;30.10;15.37;;;2.90;99.90;;;;;;5010977;28;20210;-81
2021/12/26 03:08:18;;;;;;;29.73;15.98;;;2.80;99.90;;;;;;5008448;28;20190;-83
2021/12/26 03:10:45;;;;;;;26.60;16.07;;;2.90;99.90;;;;;;5028859;28;20186;-85
2021/12/26 03:13:12;;;;;;;25.30;14.75;;;2.90;99.90;;;;;;5026269;28;20202;-82
2021/12/26 03:15:38;;;;;;;28.88;15.60;;;3.00;99.90;;;;;;5025360;28;20646;-81
2021/12/26 03:18:05;;;;;;;33.40;16.77;;;2.80;99.90;;;;;;5018786;28;20186;-84
2021/12/26 03:20:37;;;;;;;28.92;13.88;;;2.70;99.90;;;;;;5000913;28;20274;-83
2021/12/26 03:23:03;;;;;;;28.60;16.33;;;2.40;99.90;;;;;;5037821;28;20192;-80
2021/12/26 03:25:30;;;;;;;25.98;15.35;;;;;;;;;;5040860;28;20306;-83
2021/12/26 03:27:55;;;;;;;25.95;15.82;;;2.90;99.90;;;;;;5023048;28;20185;-82
2021/12/26 03:30:24;;;;;;;30.67;16.33;;;2.90;99.90;;;;;;5023993;28;20178;-83
2021/12/26 03:32:50;;;;;;;29.92;16.63;;;2.90;99.90;;;;;;5026064;28;20206;-82
2021/12/26 03:35:17;;;;;;;31.50;15.38;;;2.90;99.90;;;;;;5005865;28;20383;-85
2021/12/26 03:37:43;;;;;;;28.17;16.20;;;3.00;99.90;;;;;;5009548;28;21030;-86
2021/12/26 03:40:10;;;;;;;35.23;16.87;;;2.90;99.90;;;;;;4999887;28;20179;-82
2021/12/26 03:42:36;;;;;;;30.20;15.77;;;2.90;99.90;;;;;;5020084;28;20190;-84
2021/12/26 03:45:03;;;;;;;27.20;15.60;;;2.70;99.90;;;;;;5023285;28;20193;-88
2021/12/26 03:47:31;;;;;;;25.42;15.48;;;2.90;99.90;;;;;;5022811;28;20879;-81
2021/12/26 03:49:57;;;;;;;26.98;15.50;;;2.90;99.90;;;;;;5017795;28;20197;-85
2021/12/26 03:52:22;;;;;;;29.03;15.80;;;2.90;99.90;;;;;;5019327;28;20208;-87
2021/12/26 03:54:49;;;;;;;30.37;17.00;;;;;;;;;;5022966;28;20460;-85
2021/12/26 03:57:15;;;;;;;31.08;16.20;;;3.00;99.90;;;;;;5020023;28;20273;-84
2021/12/26 03:59:41;;;;;;;36.43;18.57;;;;;;;;;;5020346;28;20598;-84
2021/12/26 04:02:07;;;;;;;33.30;17.17;;;;;;;;;;5018090;28;21246;-84
2021/12/26 04:04:33;;;;;;;27.23;15.15;;;2.90;99.90;;;;;;5013044;28;20546;-84
2021/12/26 04:06:59;;;;;;;25.58;13.57;;;3.00;99.90;;;;;;5019258;28;20210;-83
2021/12/26 04:09:25;;;;;;;29.30;15.97;;;;;;;;;;5026555;28;20186;-86
2021/12/26 04:11:50;;;;;;;28.23;15.77;;;2.80;99.90;;;;;;5022745;28;20206;-85
2021/12/26 04:14:16;;;;;;;29.27;15.57;;;;;;;;;;5001899;28;20186;-83
2021/12/26 04:16:42;;;;;;;31.45;14.02;;;2.80;99.90;;;;;;5022520;28;20971;-80
2021/12/26 04:19:08;;;;;;;27.13;14.70;;;;;;;;;;5003197;28;20293;-82
2021/12/26 04:21:34;;;;;;;32.15;15.27;;;2.90;99.90;;;;;;5022580;28;20185;-85
2021/12/26 04:24:01;;;;;;;28.60;14.37;;;2.90;99.90;;;;;;5004214;28;20178;-83
2021/12/26 04:26:26;;;;;;;35.75;15.95;;;2.70;99.90;;;;;;5004484;28;20460;-81
2021/12/26 04:28:52;;;;;;;27.47;15.77;;;;;;;;;;5020202;28;20530;-83
2021/12/26 04:31:18;;;;;;;29.05;15.27;;;2.80;99.90;;;;;;5024727;28;20189;-84
2021/12/26 04:33:45;;;;;;;34.40;15.40;;;;;;;;;;5023674;28;20206;-86
2021/12/26 04:36:10;;;;;;;25.92;15.02;;;2.60;99.90;;;;;;5001488;28;20755;-83
2021/12/26 04:38:36;;;;;;;29.80;15.00;;;;;;;;;;5032227;28;20212;-81
2021/12/26 04:41:04;;;;;;;30.60;14.33;;;2.70;99.90;;;;;;5040058;28;20476;-85
2021/12/26 04:43:33;;;;;;;28.85;16.75;;;2.60;99.90;;;;;;5022853;28;20495;-83
2021/12/26 04:46:01;;;;;;;28.88;14.85;;;2.70;99.90;;;;;;5022877;28;20197;-79
2021/12/26 04:48:26;;;;;;;29.75;14.70;;;5.20;99.90;;;;;;5023607;28;20186;-84
2021/12/26 04:50:53;;;;;;;26.90;15.77;;;;;;;;;;5022818;28;20182;-85
2021/12/26 04:53:19;;;;;;;25.57;14.70;;;;;;;;;;5024246;28;21004;-81
2021/12/26 04:55:44;;;;;;;30.83;15.20;;;2.60;99.90;;;;;;5027223;28;21039;-85
2021/12/26 04:58:10;;;;;;;31.13;15.70;;;;;;;;;;5016136;28;20444;-82
2021/12/26 05:00:36;;;;;;;27.93;16.47;;;;;;;;;;5023923;28;20182;-83
2021/12/26 05:03:03;;;;;;;35.17;16.13;;;;;;;;;;5020954;28;21017;-84
2021/12/26 05:05:29;;;;;;;26.80;15.02;;;2.80;99.90;;;;;;5017151;28;20452;-83
2021/12/26 05:07:56;;;;;;;27.57;16.53;;;;;;;;;;5018152;28;20190;-84
2021/12/26 05:10:25;;;;;;;27.58;15.00;;;2.90;99.90;;;;;;5019597;28;20444;-83
2021/12/26 05:12:50;;;;;;;36.03;16.38;;;2.80;99.90;;;;;;5018757;28;20217;-84
2021/12/26 05:15:16;;;;;;;29.10;14.53;;;;;;;;;;5020303;28;20179;-82
2021/12/26 05:17:42;;;;;;;33.17;14.93;;;2.80;99.90;;;;;;5025579;28;20212;-87
2021/12/26 05:20:10;;;;;;;26.80;14.83;;;2.70;99.90;;;;;;5019084;28;20464;-83
2021/12/26 05:22:36;;;;;;;27.45;16.33;;;2.80;99.90;;;;;;5023424;28;20515;-83
2021/12/26 05:25:03;;;;;;;26.10;14.77;;;;;;;;;;5041393;28;20185;-84
2021/12/26 05:27:28;;;;;;;26.15;14.73;;;2.70;99.90;;;;;;5026950;28;20495;-83
2021/12/26 05:29:54;;;;;;;26.93;15.33;;;;;;;;;;5025056;28;20213;-83
2021/12/26 05:32:20;;;;;;;28.47;15.00;;;;;;;;;;5045892;28;20205;-81
2021/12/26 05:34:46;;;;;;;32.97;15.37;;;;;;;;;;5030816;28;20440;-83
2021/12/26 05:37:12;;;;;;;31.43;15.83;;;;;;;;;;5030334;28;20471;-81
2021/12/26 05:39:38;;;;;;;26.83;13.88;;;2.60;99.90;;;;;;5031324;28;20467;-88
2021/12/26 05:42:04;;;;;;;26.93;14.30;;;2.50;99.90;;;;;;5017215;28;20186;-83
2021/12/26 05:44:30;;;;;;;30.07;15.80;;;;;;;;;;5010381;28;20746;-85
2021/12/26 05:46:56;;;;;;;31.93;16.20;;;;;;;;;;5030301;28;20444;-84
2021/12/26 05:49:21;;;;;;;27.50;14.18;;;2.50;99.90;;;;;;5025684;28;20698;-83
2021/12/26 05:51:47;;;;;;;31.17;16.07;;;;;;;;;;5009897;28;20802;-85
2021/12/26 05:54:13;;;;;;;27.40;15.13;;;;;;;;;;5028443;28;20190;-84
2021/12/26 05:56:39;;;;;;;30.05;16.48;;;2.50;99.90;;;;;;5024912;28;20464;-83
2021/12/26 05:59:05;;;;;;;29.87;16.17;;;;;;;;;;5025107;28;20601;-87
2021/12/26 06:01:30;;;;;;;31.93;16.63;;;;;;;;;;5022436;28;20195;-86
2021/12/26 06:03:56;;;;;;;30.23;15.07;;;;;;;;;;5029036;28;20440;-84
2021/12/26 06:06:22;;;;;;;31.73;15.97;;;;;;;;;;5009104;28;20468;-81
2021/12/26 06:08:48;;;;;;;28.52;14.50;;;2.60;99.90;;;;;;5046317;28;20419;-81
2021/12/26 06:11:14;;;;;;;28.37;16.13;;;;;;;;;;5032506;28;20209;-83
2021/12/26 06:13:39;;;;;;;33.83;17.08;;;2.60;99.90;;;;;;5026480;28;20218;-84
2021/12/26 06:16:05;;;;;;;28.73;14.97;;;;;;;;;;5022266;28;20202;-83
2021/12/26 06:18:31;;;;;;;28.17;16.50;;;;;;;;;;5022524;28;20273;-83
2021/12/26 06:20:58;;;;;;;30.95;14.27;;;2.70;99.90;;;;;;5017015;28;20470;-84
2021/12/26 06:23:24;;;;;;;29.50;15.63;;;;;;;;;;5008167;28;20246;-84
2021/12/26 06:25:50;;;;;;;26.10;16.37;;;;;;;;;;5011323;28;20902;-84
2021/12/26 06:28:16;;;;;;;29.57;17.90;;;;;;;;;;5024480;28;20445;-83
2021/12/26 06:30:42;;;;;;;29.07;15.70;;;;;;;;;;5022991;28;20521;-85
2021/12/26 06:33:08;;;;;;;34.87;16.00;;;;;;;;;;5021164;28;20480;-84
2021/12/26 06:35:34;;;;;;;31.98;16.58;;;2.60;99.90;;;;;;5018654;28;20451;-83
2021/12/26 06:38:00;;;;;;;30.35;15.65;;;2.60;99.90;;;;;;5004841;28;20185;-85
2021/12/26 06:40:26;;;;;;;29.53;15.50;;;;;;;;;;5028597;28;20186;-85
2021/12/26 06:42:52;;;;;;;30.70;16.70;;;;;;;;;;5029633;28;20182;-84
2021/12/26 06:45:18;;;;;;;33.13;16.08;;;2.90;99.90;;;;;;5007968;28;20443;-86
2021/12/26 06:47:49;;;;;;;28.50;15.82;;;2.90;99.90;;;;;;5002007;28;20210;-83
2021/12/26 06:50:16;;;;;;;28.10;15.38;;;2.80;99.90;;;;;;5025693;28;21141;-86
2021/12/26 06:52:42;;;;;;;31.90;15.82;;;2.60;99.90;;;;;;5006069;28;20770;-86
2021/12/26 06:55:10;;;;;;;32.83;17.08;;;2.50;99.90;;;;;;5004723;28;20269;-85
2021/12/26 06:57:36;;;;;;;34.28;17.23;;;2.70;99.90;;;;;;5011552;28;20221;-87
2021/12/26 07:00:07;;;;;;;23.75;15.15;;;2.70;99.90;;;;;;5005761;28;20174;-85
2021/12/26 07:02:32;;;;;;;26.58;16.30;;;2.70;99.90;;;;;;5026614;28;20178;-83
2021/12/26 07:04:58;;;;;;;28.13;15.80;;;;;;;;;;5026490;28;20211;-86
2021/12/26 07:07:24;;;;;;;29.20;15.67;;;;;;;;;;5032590;28;20490;-84
2021/12/26 07:09:50;;;;;;;30.17;16.23;;;2.80;99.90;;;;;;5031484;28;20457;-84
2021/12/26 07:12:16;;;;;;;25.70;14.03;;;;;;;;;;5018373;28;20224;-86
2021/12/26 07:14:41;;;;;;;29.90;15.45;;;2.90;99.90;;;;;;5032769;28;20232;-85
2021/12/26 07:17:10;;;;;;;31.60;16.77;;;2.90;99.90;;;;;;5030172;28;20221;-85
2021/12/26 07:19:35;;;;;;;32.17;17.38;;;2.90;99.90;;;;;;5021477;28;20189;-87
2021/12/26 07:22:01;;;;;;;32.80;16.80;;;;;;;;;;5009573;28;20254;-86
2021/12/26 07:24:27;;;;;;;28.25;15.30;;;;;;;;;;5038012;28;20208;-82
2021/12/26 07:26:53;;;;;;;39.30;18.27;;;;;;;;;;5044528;28;20202;-86
2021/12/26 07:29:19;;;;;;;36.90;17.83;;;;;;;;;;5027962;28;20469;-82
2021/12/26 07:31:45;;;;;;;27.03;15.77;;;;;;;;;;5016032;28;20470;-85
2021/12/26 07:34:11;;;;;;;40.47;18.90;;;;;;;;;;5013726;28;20437;-86
2021/12/26 07:36:37;;;;;;;30.50;16.03;;;;;;;;;;5026697;28;20491;-85
2021/12/26 07:39:04;;;;;;;34.17;16.50;;;2.90;99.90;;;;;;5041540;28;20499;-81
2021/12/26 07:41:29;;;;;;;29.55;17.02;;;3.00;99.90;;;;;;5019858;28;20299;-83
2021/12/26 07:43:55;;;;;;;35.13;17.27;;;;;;;;;;5020089;28;20284;-85
2021/12/26 07:46:21;;;;;;;40.80;18.27;;;;;;;;;;5029553;28;21998;-86
2021/12/26 07:48:47;;;;;;;34.20;19.50;;;;;;;;;;5033431;28;20453;-84
2021/12/26 07:51:13;;;;;;;41.75;20.52;;;;;;;;;;5038202;28;20428;-82
2021/12/26 07:53:39;;;;;;;56.10;26.50;;;;;;;;;;5028135;28;20209;-86
2021/12/26 07:56:06;;;;;;;37.83;18.83;;;2.80;99.90;;;;;;5015226;28;20495;-84
2021/12/26 07:58:31;;;;;;;34.60;17.30;;;2.80;99.90;;;;;;5012248;28;20453;-85
2021/12/26 08:00:57;;;;;;;30.20;16.17;;;;;;;;;;5012596;28;20200;-84
2021/12/26 08:03:23;;;;;;;37.33;18.60;;;3.10;99.90;;;;;;5033796;28;20196;-85
2021/12/26 08:05:49;;;;;;;36.10;17.97;;;;;;;;;;5028435;28;20221;-86
2021/12/26 08:08:15;;;;;;;30.70;16.20;;;;;;;;;;5030810;28;20205;-88
2021/12/26 08:10:41;;;;;;;37.37;17.93;;;;;;;;;;5024698;28;20444;-84
2021/12/26 08:13:07;;;;;;;40.93;17.77;;;;;;;;;;5023332;28;20477;-84
2021/12/26 08:15:33;;;;;;;36.63;17.10;;;;;;;;;;5031122;28;20454;-83
2021/12/26 08:17:59;;;;;;;33.07;17.77;;;;;;;;;;5013046;28;20449;-82
2021/12/26 08:20:25;;;;;;;29.10;16.63;;;;;;;;;;5030844;28;20520;-86
2021/12/26 08:22:51;;;;;;;35.65;18.83;;;3.30;99.90;;;;;;5032160;28;20445;-81
2021/12/26 08:25:17;;;;;;;29.47;16.33;;;;;;;;;;5039817;28;20250;-82
2021/12/26 08:27:43;;;;;;;33.97;17.25;;;;;;;;;;5034772;28;20216;-83
2021/12/26 08:30:09;;;;;;;35.65;17.95;;;3.40;99.90;;;;;;5027731;28;20186;-81
2021/12/26 08:32:39;;;;;;;28.98;17.02;;;;;;;;;;5036118;28;20210;-81
2021/12/26 08:35:07;;;;;;;29.88;16.75;;;3.40;99.90;;;;;;5034236;28;20190;-84
2021/12/26 08:37:32;;;;;;;34.85;17.90;;;3.50;99.90;;;;;;5034290;28;20186;-83
2021/12/26 08:39:58;;;;;;;33.03;16.93;;;;;;;;;;5034809;28;20186;-83
2021/12/26 08:42:24;;;;;;;31.57;16.77;;;;;;;;;;5028037;28;20600;-86
2021/12/26 08:44:56;;;;;;;32.07;16.97;;;3.70;99.90;;;;;;5011563;28;20424;-82
2021/12/26 08:47:22;;;;;;;34.42;17.92;;;;;;;;;;5016445;28;20476;-83
2021/12/26 08:49:47;;;;;;;29.67;17.17;;;4.00;99.90;;;;;;5038698;28;20191;-83
2021/12/26 08:52:13;;;;;;;37.93;18.40;;;;;;;;;;5023991;28;20472;-83
2021/12/26 08:54:39;;;;;;;33.80;17.50;;;4.00;99.90;;;;;;5033753;28;20234;-85
2021/12/26 08:57:09;;;;;;;31.90;17.00;;;4.20;99.90;;;;;;5013801;28;20232;-83
2021/12/26 08:59:41;;;;;;;32.33;17.67;;;4.20;99.90;;;;;;5012893;28;20445;-87
2021/12/26 09:02:07;;;;;;;27.48;15.63;;;;;;;;;;5014202;28;20221;-83
2021/12/26 09:04:35;;;;;;;28.25;17.10;;;4.10;99.90;;;;;;5018622;28;20205;-82
2021/12/26 09:07:03;;;;;;;33.42;17.85;;;4.10;99.90;;;;;;5016979;28;20257;-83
2021/12/26 09:09:29;;;;;;;36.75;15.85;;;;;;;;;;5025039;28;20177;-82
2021/12/26 09:11:58;;;;;;;30.80;15.17;;;4.10;99.90;;;;;;5036276;28;20209;-82
2021/12/26 09:14:26;;;;;;;27.65;16.75;;;4.20;99.90;;;;;;5036773;28;20452;-84
2021/12/26 09:16:54;;;;;;;32.35;16.52;;;4.00;99.90;;;;;;5017239;28;20194;-84
2021/12/26 09:19:20;;;;;;;32.17;16.40;;;;;;;;;;5037675;28;20185;-82
2021/12/26 09:21:46;;;;;;;30.92;17.42;;;4.00;99.90;;;;;;5033473;28;20188;-86
2021/12/26 09:24:14;;;;;;;37.00;17.53;;;4.00;99.90;;;;;;5014019;28;20189;-83
2021/12/26 09:26:39;;;;;;;28.85;17.35;;;4.10;99.90;;;;;;5033004;28;20532;-83
2021/12/26 09:29:05;;;;;;;36.90;18.37;;;;;;;;;;5018572;28;20193;-83
2021/12/26 09:31:31;;;;;;;32.20;16.87;;;;;;;;;;5027756;28;20181;-84
2021/12/26 09:33:57;;;;;;;30.40;16.20;;;;;;;;;;5036396;28;20474;-82
2021/12/26 09:36:23;;;;;;;35.45;17.00;;;;;;;;;;5029054;28;20464;-82
2021/12/26 09:38:50;;;;;;;29.80;16.17;;;4.60;99.90;;;;;;5035597;28;20634;-82
2021/12/26 09:41:15;;;;;;;35.20;16.50;;;4.70;99.90;;;;;;5035933;28;20249;-81
2021/12/26 09:43:41;;;;;;;31.07;16.77;;;;;;;;;;5027002;28;21523;-84
2021/12/26 09:46:08;;;;;;;32.97;16.80;;;;;;;;;;5028961;28;20234;-87
2021/12/26 09:48:33;;;;;;;29.83;15.45;;;4.60;99.90;;;;;;5030622;28;20436;-84
2021/12/26 09:50:59;;;;;;;32.27;17.53;;;;;;;;;;5014272;28;20190;-84
2021/12/26 09:53:25;;;;;;;35.57;18.83;;;;;;;;;;5029979;28;20237;-85
2021/12/26 09:55:51;;;;;;;30.10;16.57;;;;;;;;;;5026444;28;20460;-84
2021/12/26 09:58:18;;;;;;;33.05;17.40;;;4.70;99.90;;;;;;5022154;28;21130;-85
2021/12/26 10:00:45;;;;;;;32.60;16.25;;;4.70;99.90;;;;;;5004898;28;20193;-83
2021/12/26 10:03:23;;;;;;;30.67;16.58;;;4.60;99.90;;;;;;5004464;28;20186;-84
2021/12/26 10:06:06;;;;;;;31.98;16.67;;;4.60;99.90;;;;;;5007170;28;20197;-83
2021/12/26 10:08:34;;;;;;;33.20;17.45;;;4.60;99.90;;;;;;5017212;28;20547;-82
2021/12/26 10:11:14;;;;;;;31.55;17.85;;;4.70;99.90;;;;;;5012439;28;20945;-85
2021/12/26 10:13:46;;;;;;;35.38;18.70;;;4.80;99.90;;;;;;5010329;28;20201;-83
2021/12/26 10:16:14;;;;;;;31.05;17.42;;;4.90;99.90;;;;;;5016550;28;20661;-83
2021/12/26 10:18:41;;;;;;;32.58;17.55;;;4.90;99.90;;;;;;5018758;28;20175;-84
2021/12/26 10:21:30;;;;;;;32.95;16.98;;;5.00;99.90;;;;;;5001771;28;20181;-83
2021/12/26 10:24:11;;;;;;;27.83;17.20;;;5.00;99.90;;;;;;5011934;28;20494;-83
2021/12/26 10:26:40;;;;;;;28.65;16.20;;;5.10;99.90;;;;;;5028038;28;20228;-85
2021/12/26 10:29:19;;;;;;;35.17;17.45;;;4.90;99.90;;;;;;5009198;28;20288;-82
2021/12/26 10:31:58;;;;;;;31.20;16.65;;;5.20;99.90;;;;;;5012677;28;20189;-86
2021/12/26 10:34:29;;;;;;;35.85;17.13;;;5.30;99.90;;;;;;5010941;28;20273;-86
2021/12/26 10:36:55;;;;;;;32.78;17.40;;;5.40;99.90;;;;;;5007645;28;20201;-85
2021/12/26 10:39:27;;;;;;;29.55;15.43;;;5.20;99.90;;;;;;5031787;28;20182;-83
2021/12/26 10:41:57;;;;;;;29.95;16.50;;;5.40;99.90;;;;;;5014598;28;20179;-85
2021/12/26 10:44:28;;;;;;;36.08;15.93;;;5.20;99.90;;;;;;5016266;28;20187;-83
2021/12/26 10:47:16;;;;;;;31.90;17.25;;;5.30;99.90;;;;;;5038067;28;20243;-83
2021/12/26 10:49:57;;;;;;;30.45;18.02;;;5.30;99.90;;;;;;5011700;28;20189;-85
2021/12/26 10:52:32;;;;;;;32.58;16.80;;;5.30;99.90;;;;;;5015697;28;20226;-82
2021/12/26 10:55:12;;;;;;;37.50;17.92;;;5.10;99.90;;;;;;5014027;28;20224;-87
2021/12/26 10:57:57;;;;;;;34.25;18.45;;;5.00;99.90;;;;;;5020329;28;20713;-87
2021/12/26 11:00:29;;;;;;;31.42;16.92;;;4.80;99.90;;;;;;5008573;28;20217;-86
2021/12/26 11:03:03;;;;;;;31.75;16.95;;;5.00;99.90;;;;;;5024586;28;20185;-85
2021/12/26 11:05:34;;;;;;;34.97;17.38;;;4.80;99.90;;;;;;4989795;28;20182;-87
2021/12/26 11:08:03;;;;;;;31.02;17.48;;;5.00;99.90;;;;;;5009491;28;20196;-88
2021/12/26 11:10:36;;;;;;;35.15;17.48;;;5.00;99.90;;;;;;4994261;28;20969;-86
2021/12/26 11:13:04;;;;;;;30.05;16.83;;;5.00;99.90;;;;;;5009617;28;20205;-84
2021/12/26 11:15:37;;;;;;;30.48;15.90;;;5.00;99.90;;;;;;5004484;28;20178;-82
2021/12/26 11:18:14;;;;;;;33.03;15.75;;;6.50;99.90;;;;;;5008971;28;20178;-86
2021/12/26 11:20:52;;;;;;;34.13;17.58;;;5.10;99.90;;;;;;5009302;28;20623;-85
2021/12/26 11:23:26;;;;;;;30.80;17.45;;;6.50;99.90;;;;;;5021869;28;20178;-84
2021/12/26 11:26:00;;;;;;;33.42;17.20;;;5.20;99.90;;;;;;5021333;28;20198;-86
2021/12/26 11:28:35;;;;;;;36.85;17.10;;;5.40;99.90;;;;;;5018219;28;20189;-85
2021/12/26 11:31:07;;;;;;;30.05;16.55;;;5.30;99.90;;;;;;5044593;28;20246;-86
2021/12/26 11:33:34;;;;;;;32.42;18.55;;;5.80;99.90;;;;;;5028832;28;20229;-83
2021/12/26 11:36:03;;;;;;;46.03;28.50;;;5.40;99.90;;;;;;5011712;28;20304;-83
2021/12/26 11:38:32;;;;;;;47.60;27.02;;;5.50;99.90;;;;;;5032087;28;20187;-85
2021/12/26 11:41:01;;;;;;;50.45;24.30;;;5.40;99.90;;;;;;5035695;28;20186;-85
2021/12/26 11:43:48;;;;;;;159.80;83.18;;;4.80;99.90;;;;;;5005228;28;20188;-83
2021/12/26 11:46:38;;;;;;;66.55;37.50;;;5.40;99.90;;;;;;5017245;28;20202;-85
2021/12/26 11:49:13;;;;;;;44.92;26.50;;;5.50;99.90;;;;;;5034507;28;21513;-84
2021/12/26 11:51:52;;;;;;;36.60;19.02;;;5.00;99.90;;;;;;5035112;28;20190;-86
2021/12/26 11:54:33;;;;;;;35.92;17.88;;;5.50;99.90;;;;;;5037467;28;20225;-84
2021/12/26 11:57:29;;;;;;;38.03;19.73;;;5.60;99.90;;;;;;5038848;28;20209;-85
2021/12/26 12:00:10;;;;;;;40.50;21.80;;;5.50;99.90;;;;;;5035971;28;20174;-83
2021/12/26 12:02:38;;;;;;;37.17;19.95;;;5.60;99.90;;;;;;5026452;28;20185;-86
2021/12/26 12:05:36;;;;;;;36.65;19.88;;;5.60;99.90;;;;;;5021656;28;20193;-87
2021/12/26 12:08:05;;;;;;;38.00;20.40;;;5.70;99.90;;;;;;5043637;28;20208;-86
2021/12/26 12:10:41;;;;;;;52.05;32.28;;;6.30;99.90;;;;;;5023534;28;20185;-88
2021/12/26 12:13:28;;;;;;;32.78;20.63;;;5.60;99.90;;;;;;5018608;28;20830;-91
2021/12/26 12:15:58;;;;;;;43.28;21.33;;;5.80;99.90;;;;;;5017041;28;20205;-87
2021/12/26 12:18:45;;;;;;;39.15;21.35;;;8.10;99.90;;;;;;5026780;28;20273;-90
2021/12/26 12:21:32;;;;;;;45.22;24.77;;;5.80;99.90;;;;;;5024913;28;20169;-89
2021/12/26 12:24:23;;;;;;;41.78;25.67;;;5.80;99.90;;;;;;5028376;28;20189;-89
2021/12/26 12:27:17;;;;;;;38.83;18.95;;;6.00;99.90;;;;;;5001579;28;20547;-91
2021/12/26 12:29:44;;;;;;;79.22;23.15;;;8.30;99.90;;;;;;5009966;28;20529;-89
2021/12/26 12:32:11;;;;;;;41.92;18.95;;;;;;;;;;5001885;28;20293;-88
2021/12/26 12:34:49;;;;;;;42.00;21.15;;;6.30;99.90;;;;;;5033499;28;20190;-87
2021/12/26 12:37:40;;;;;;;31.70;19.42;;;6.30;99.90;;;;;;5022357;28;20201;-89
2021/12/26 12:40:30;;;;;;;33.58;17.80;;;6.30;99.90;;;;;;5000610;28;20746;-88
2021/12/26 12:43:11;;;;;;;36.28;18.23;;;6.20;99.90;;;;;;5000245;28;20181;-86
2021/12/26 12:45:56;;;;;;;52.10;25.67;;;6.10;99.90;;;;;;5001283;28;20208;-88
2021/12/26 12:48:40;;;;;;;35.90;18.67;;;6.30;99.90;;;;;;5016590;28;20204;-87
2021/12/26 12:51:15;;;;;;;36.70;17.55;;;6.20;99.90;;;;;;5010148;28;20186;-89
2021/12/26 12:53:58;;;;;;;38.15;19.83;;;6.20;99.90;;;;;;5006416;28;20212;-91
2021/12/26 12:56:29;;;;;;;35.00;19.45;;;6.20;99.90;;;;;;5016271;28;20205;-88
2021/12/26 12:59:16;;;;;;;31.88;18.10;;;6.30;99.90;;;;;;5023619;28;20224;-89
2021/12/26 13:01:55;;;;;;;40.92;19.00;;;6.30;99.90;;;;;;5004459;28;20173;-90
2021/12/26 13:04:30;;;;;;;39.70;20.15;;;9.00;99.90;;;;;;5002856;28;20185;-90
2021/12/26 13:07:02;;;;;;;34.00;18.70;;;6.20;99.90;;;;;;5006194;28;20200;-87
2021/12/26 13:09:30;;;;;;;34.08;19.00;;;6.20;99.90;;;;;;5007435;28;20186;-87
2021/12/26 13:12:05;;;;;;;40.75;20.27;;;6.20;99.90;;;;;;4997367;28;20181;-87
2021/12/26 13:14:42;;;;;;;32.55;18.88;;;6.20;99.90;;;;;;4999892;28;20339;-85
2021/12/26 13:17:32;;;;;;;43.45;19.92;;;6.20;99.90;;;;;;5003001;28;20253;-86